createdAt,value
2019-06-01T00:00:12.935Z,13.80
2019-06-01T00:02:45.445Z,13.80
2019-06-01T00:05:13.393Z,13.80
2019-06-01T00:07:42.977Z,13.70
2019-06-01T00:10:12.401Z,13.60
2019-06-01T00:12:43.503Z,13.60
2019-06-01T00:15:15.321Z,13.60
2019-06-01T00:17:45.932Z,13.50
2019-06-01T00:20:15.311Z,13.50
2019-06-01T00:22:45.522Z,13.50
2019-06-01T00:25:14.941Z,13.40
2019-06-01T00:27:46.748Z,13.40
2019-06-01T00:30:26.536Z,13.50
2019-06-01T00:32:47.324Z,13.40
2019-06-01T00:35:18.455Z,13.40
2019-06-01T00:37:50.115Z,13.40
2019-06-01T00:40:22.842Z,13.30
2019-06-01T00:42:53.131Z,13.30
2019-06-01T00:45:24.804Z,13.40
2019-06-01T00:47:55.240Z,13.20
2019-06-01T00:50:27.039Z,13.10
2019-06-01T00:52:58.543Z,13.20
2019-06-01T00:55:29.604Z,13.20
2019-06-01T00:57:58.904Z,13.10
2019-06-01T01:00:42.811Z,13.20
2019-06-01T01:02:59.008Z,13.20
2019-06-01T01:05:29.045Z,13.20
2019-06-01T01:08:01.379Z,13.10
2019-06-01T01:10:30.611Z,13.10
2019-06-01T01:13:06.500Z,13.00
2019-06-01T01:15:36.546Z,13.00
2019-06-01T01:18:09.212Z,13.00
2019-06-01T01:20:38.468Z,13.00
2019-06-01T01:23:08.532Z,13.00
2019-06-01T01:25:40.836Z,13.00
2019-06-01T01:28:10.204Z,13.00
2019-06-01T01:30:40.031Z,12.90
2019-06-01T01:33:09.798Z,13.00
2019-06-01T01:35:43.360Z,13.00
2019-06-01T01:38:14.051Z,12.90
2019-06-01T01:40:44.643Z,12.90
2019-06-01T01:43:14.692Z,12.90
2019-06-01T01:45:47.043Z,12.90
2019-06-01T01:48:16.248Z,13.00
2019-06-01T01:50:45.740Z,12.90
2019-06-01T01:53:14.970Z,13.00
2019-06-01T01:55:44.210Z,12.90
2019-06-01T01:58:13.416Z,12.90
2019-06-01T02:00:46.773Z,12.90
2019-06-01T02:03:16.176Z,12.80
2019-06-01T02:05:46.260Z,12.90
2019-06-01T02:08:15.600Z,12.80
2019-06-01T02:10:44.724Z,12.80
2019-06-01T02:13:13.908Z,12.70
2019-06-01T02:15:43.404Z,12.70
2019-06-01T02:18:12.915Z,12.70
2019-06-01T02:20:44.632Z,12.70
2019-06-01T02:23:14.006Z,12.60
2019-06-01T02:25:48.414Z,12.60
2019-06-01T02:28:17.544Z,12.50
2019-06-01T02:30:47.269Z,12.50
2019-06-01T02:33:17.036Z,12.40
2019-06-01T02:35:48.290Z,12.40
2019-06-01T02:38:17.804Z,12.20
2019-06-01T02:40:48.099Z,12.10
2019-06-01T02:43:17.234Z,12.10
2019-06-01T02:45:48.547Z,12.00
2019-06-01T02:48:19.561Z,12.00
2019-06-01T02:50:49.894Z,11.90
2019-06-01T02:53:22.353Z,11.90
2019-06-01T02:55:52.649Z,11.90
2019-06-01T02:58:22.219Z,11.90
2019-06-01T03:01:32.656Z,11.80
2019-06-01T03:04:03.722Z,11.80
2019-06-01T03:06:33.250Z,11.70
2019-06-01T03:09:06.703Z,11.80
2019-06-01T03:11:37.007Z,11.70
2019-06-01T03:14:08.935Z,11.80
2019-06-01T03:16:43.372Z,11.90
2019-06-01T03:19:16.120Z,12.00
2019-06-01T03:21:50.582Z,11.90
2019-06-01T03:24:26.048Z,11.90
2019-06-01T03:26:56.012Z,11.80
2019-06-01T03:29:28.654Z,11.70
2019-06-01T03:32:19.325Z,11.80
2019-06-01T03:34:28.995Z,11.70
2019-06-01T03:36:58.496Z,11.70
2019-06-01T03:39:33.621Z,11.70
2019-06-01T03:42:03.411Z,11.80
2019-06-01T03:44:33.412Z,11.80
2019-06-01T03:47:05.558Z,11.80
2019-06-01T03:49:34.862Z,11.80
2019-06-01T03:52:04.826Z,11.80
2019-06-01T03:54:35.377Z,11.90
2019-06-01T03:57:05.318Z,11.90
2019-06-01T03:59:35.863Z,11.90
2019-06-01T04:02:05.379Z,12.00
2019-06-01T04:04:35.736Z,12.10
2019-06-01T04:07:06.332Z,12.10
2019-06-01T04:09:35.601Z,12.00
2019-06-01T04:12:06.207Z,12.10
2019-06-01T04:14:37.878Z,11.90
2019-06-01T04:17:10.227Z,12.00
2019-06-01T04:19:43.356Z,11.90
2019-06-01T04:22:14.193Z,12.20
2019-06-01T04:24:47.023Z,12.10
2019-06-01T04:27:18.288Z,12.20
2019-06-01T04:29:48.252Z,12.20
2019-06-01T04:32:17.611Z,12.30
2019-06-01T04:34:46.880Z,12.30
2019-06-01T04:37:16.022Z,12.40
2019-06-01T04:39:45.252Z,12.40
2019-06-01T04:42:14.481Z,12.70
2019-06-01T04:44:43.642Z,12.70
2019-06-01T04:47:13.095Z,12.70
2019-06-01T04:49:44.631Z,12.70
2019-06-01T04:52:15.236Z,12.90
2019-06-01T04:54:47.937Z,13.00
2019-06-01T04:57:20.188Z,13.00
2019-06-01T04:59:52.199Z,13.00
2019-06-01T05:02:21.470Z,13.10
2019-06-01T05:04:51.114Z,13.20
2019-06-01T05:07:20.401Z,13.30
2019-06-01T05:09:49.532Z,13.50
2019-06-01T05:12:18.768Z,13.50
2019-06-01T05:14:48.294Z,13.50
2019-06-01T05:17:17.626Z,13.60
2019-06-01T05:19:46.859Z,13.60
2019-06-01T05:22:16.732Z,13.60
2019-06-01T05:24:46.047Z,13.80
2019-06-01T05:27:15.286Z,13.80
2019-06-01T05:29:44.885Z,13.80
2019-06-01T05:32:18.819Z,13.80
2019-06-01T05:34:50.289Z,14.00
2019-06-01T05:37:19.416Z,14.00
2019-06-01T05:39:48.556Z,14.10
2019-06-01T05:42:18.974Z,14.20
2019-06-01T05:44:48.323Z,14.30
2019-06-01T05:47:20.040Z,14.30
2019-06-01T05:49:49.268Z,14.40
2019-06-01T05:52:18.901Z,14.40
2019-06-01T05:54:48.274Z,14.60
2019-06-01T05:57:19.302Z,14.70
2019-06-01T05:59:48.849Z,14.80
2019-06-01T06:02:18.044Z,14.90
2019-06-01T06:04:47.217Z,14.90
2019-06-01T06:07:19.025Z,15.10
2019-06-01T06:09:48.538Z,15.20
2019-06-01T06:12:17.659Z,15.30
2019-06-01T06:14:46.803Z,15.50
2019-06-01T06:17:18.053Z,15.60
2019-06-01T06:19:47.641Z,15.70
2019-06-01T06:22:18.217Z,16.00
2019-06-01T06:24:47.451Z,16.10
2019-06-01T06:27:20.680Z,16.30
2019-06-01T06:29:50.307Z,16.70
2019-06-01T06:32:24.327Z,17.20
2019-06-01T06:34:55.475Z,17.60
2019-06-01T06:37:29.900Z,17.80
2019-06-01T06:39:59.524Z,18.20
2019-06-01T06:42:31.732Z,18.10
2019-06-01T06:45:03.535Z,18.30
2019-06-01T06:47:33.564Z,18.60
2019-06-01T06:50:03.136Z,19.00
2019-06-01T06:52:34.239Z,19.40
2019-06-01T06:55:03.519Z,20.00
2019-06-01T06:57:34.588Z,20.40
2019-06-01T07:00:06.556Z,20.70
2019-06-01T07:02:41.436Z,20.90
2019-06-01T07:05:11.493Z,21.40
2019-06-01T07:07:42.646Z,21.30
2019-06-01T07:10:14.318Z,21.50
2019-06-01T07:12:43.548Z,21.70
2019-06-01T07:15:12.914Z,22.00
2019-06-01T07:17:44.850Z,22.20
2019-06-01T07:20:16.078Z,22.40
2019-06-01T07:22:47.447Z,22.90
2019-06-01T07:25:17.074Z,23.20
2019-06-01T07:27:49.129Z,23.10
2019-06-01T07:30:18.050Z,23.10
2019-06-01T07:32:47.198Z,23.20
2019-06-01T07:35:17.076Z,23.50
2019-06-01T07:37:46.329Z,23.60
2019-06-01T07:40:16.414Z,23.60
2019-06-01T07:42:45.988Z,23.80
2019-06-01T07:45:17.418Z,23.60
2019-06-01T07:47:48.188Z,23.60
2019-06-01T07:50:17.590Z,24.00
2019-06-01T07:52:48.082Z,24.40
2019-06-01T07:55:17.850Z,24.60
2019-06-01T07:57:49.606Z,24.90
2019-06-01T08:00:20.969Z,25.10
2019-06-01T08:02:50.558Z,25.00
2019-06-01T08:05:25.375Z,25.20
2019-06-01T08:07:55.180Z,25.30
2019-06-01T08:10:24.908Z,25.30
2019-06-01T08:12:55.500Z,25.30
2019-06-01T08:15:25.674Z,25.70
2019-06-01T08:17:57.545Z,26.20
2019-06-01T08:20:28.700Z,26.40
2019-06-01T08:23:02.228Z,26.60
2019-06-01T08:25:33.659Z,26.70
2019-06-01T08:28:05.331Z,26.70
2019-06-01T08:30:35.567Z,26.80
2019-06-01T08:33:20.365Z,26.70
2019-06-01T08:35:51.456Z,26.70
2019-06-01T08:38:20.872Z,27.10
2019-06-01T08:40:53.752Z,27.00
2019-06-01T08:43:29.747Z,27.00
2019-06-01T08:45:59.959Z,27.20
2019-06-01T08:48:30.220Z,27.50
2019-06-01T08:50:59.419Z,28.20
2019-06-01T08:53:30.365Z,28.10
2019-06-01T08:55:59.477Z,28.50
2019-06-01T08:58:30.416Z,28.40
2019-06-01T09:01:02.539Z,28.40
2019-06-01T09:03:39.257Z,28.30
2019-06-01T09:06:06.972Z,28.10
2019-06-01T09:08:37.054Z,28.00
2019-06-01T09:11:07.550Z,28.00
2019-06-01T09:13:39.550Z,28.30
2019-06-01T09:16:09.604Z,29.10
2019-06-01T09:18:41.940Z,28.90
2019-06-01T09:21:12.984Z,28.90
2019-06-01T09:23:42.205Z,29.00
2019-06-01T09:26:11.396Z,29.20
2019-06-01T09:28:40.743Z,29.60
2019-06-01T09:31:09.988Z,29.50
2019-06-01T09:33:42.343Z,29.30
2019-06-01T09:36:12.151Z,29.70
2019-06-01T09:38:44.083Z,30.30
2019-06-01T09:41:14.319Z,29.60
2019-06-01T09:43:43.957Z,29.80
2019-06-01T09:46:14.004Z,29.70
2019-06-01T09:48:43.211Z,29.50
2019-06-01T09:51:14.021Z,30.10
2019-06-01T09:53:44.821Z,30.10
2019-06-01T09:56:14.651Z,28.90
2019-06-01T09:58:43.871Z,29.30
2019-06-01T10:01:18.145Z,30.10
2019-06-01T10:03:47.413Z,30.30
2019-06-01T10:06:16.610Z,30.00
2019-06-01T10:08:55.763Z,29.50
2019-06-01T10:11:27.449Z,29.90
2019-06-01T10:13:56.904Z,30.30
2019-06-01T10:16:26.151Z,30.20
2019-06-01T10:18:55.844Z,30.10
2019-06-01T10:21:25.049Z,29.60
2019-06-01T10:23:54.452Z,30.00
2019-06-01T10:26:24.499Z,30.00
2019-06-01T10:28:55.003Z,30.00
2019-06-01T10:31:24.200Z,30.60
2019-06-01T10:33:54.205Z,30.70
2019-06-01T10:36:24.156Z,31.30
2019-06-01T10:38:53.263Z,31.00
2019-06-01T10:41:26.461Z,31.40
2019-06-01T10:43:55.692Z,31.70
2019-06-01T10:46:26.078Z,32.00
2019-06-01T10:48:55.306Z,31.60
2019-06-01T10:51:24.971Z,31.70
2019-06-01T10:53:54.155Z,31.70
2019-06-01T10:56:23.275Z,31.30
2019-06-01T10:58:59.971Z,31.40
2019-06-01T11:01:23.748Z,31.70
2019-06-01T11:03:52.922Z,31.30
2019-06-01T11:06:36.260Z,31.70
2019-06-01T11:08:54.435Z,31.90
2019-06-01T11:11:25.073Z,32.20
2019-06-01T11:13:54.265Z,32.30
2019-06-01T11:16:28.056Z,32.10
2019-06-01T11:18:57.210Z,32.10
2019-06-01T11:21:29.300Z,32.10
2019-06-01T11:23:58.464Z,32.10
2019-06-01T11:26:27.668Z,31.70
2019-06-01T11:28:56.867Z,31.90
2019-06-01T11:31:27.205Z,32.10
2019-06-01T11:33:56.355Z,32.40
2019-06-01T11:36:25.529Z,32.70
2019-06-01T11:39:03.796Z,32.90
2019-06-01T11:41:34.443Z,32.80
2019-06-01T11:44:05.422Z,32.90
2019-06-01T11:46:36.728Z,33.10
2019-06-01T11:49:07.020Z,33.10
2019-06-01T11:51:36.967Z,33.10
2019-06-01T11:54:07.123Z,33.10
2019-06-01T11:56:39.197Z,33.30
2019-06-01T11:59:08.377Z,33.50
2019-06-01T12:01:37.923Z,33.60
2019-06-01T12:04:07.415Z,34.00
2019-06-01T12:06:38.214Z,33.80
2019-06-01T12:09:08.873Z,33.40
2019-06-01T12:11:38.125Z,33.40
2019-06-01T12:14:07.621Z,33.60
2019-06-01T12:16:40.359Z,33.60
2019-06-01T12:19:09.947Z,34.00
2019-06-01T12:21:42.939Z,34.00
2019-06-01T12:24:15.807Z,34.30
2019-06-01T12:26:45.491Z,34.30
2019-06-01T12:29:16.756Z,34.60
2019-06-01T12:31:46.541Z,34.00
2019-06-01T12:34:22.166Z,34.30
2019-06-01T12:36:52.788Z,34.50
2019-06-01T12:39:38.306Z,34.50
2019-06-01T12:42:10.669Z,34.80
2019-06-01T12:44:40.012Z,34.90
2019-06-01T12:47:11.002Z,34.80
2019-06-01T12:49:40.532Z,34.70
2019-06-01T12:52:12.178Z,34.80
2019-06-01T12:54:42.958Z,34.50
2019-06-01T12:57:13.543Z,34.80
2019-06-01T12:59:45.159Z,35.00
2019-06-01T13:02:19.945Z,35.30
2019-06-01T13:04:53.079Z,35.20
2019-06-01T13:07:22.702Z,35.10
2019-06-01T13:09:52.835Z,34.70
2019-06-01T13:12:29.865Z,34.70
2019-06-01T13:15:03.193Z,34.50
2019-06-01T13:17:32.801Z,34.80
2019-06-01T13:20:02.935Z,34.80
2019-06-01T13:22:34.000Z,34.90
2019-06-01T13:25:03.159Z,34.80
2019-06-01T13:27:32.325Z,35.20
2019-06-01T13:30:01.472Z,34.00
2019-06-01T13:32:30.698Z,34.30
2019-06-01T13:35:00.215Z,34.50
2019-06-01T13:37:29.398Z,35.10
2019-06-01T13:40:00.774Z,33.80
2019-06-01T13:42:30.065Z,34.20
2019-06-01T13:44:59.176Z,33.70
2019-06-01T13:47:28.645Z,34.40
2019-06-01T13:49:58.650Z,35.00
2019-06-01T13:52:29.327Z,35.30
2019-06-01T13:55:00.116Z,35.70
2019-06-01T13:57:31.221Z,35.30
2019-06-01T14:00:00.797Z,35.30
2019-06-01T14:02:32.139Z,35.60
2019-06-01T14:05:02.609Z,35.60
2019-06-01T14:07:34.045Z,35.40
2019-06-01T14:10:06.380Z,35.70
2019-06-01T14:12:35.947Z,35.70
2019-06-01T14:15:07.300Z,35.30
2019-06-01T14:17:40.663Z,35.70
2019-06-01T14:20:14.286Z,36.10
2019-06-01T14:22:45.885Z,36.00
2019-06-01T14:25:15.645Z,36.20
2019-06-01T14:27:48.231Z,36.00
2019-06-01T14:30:24.150Z,36.30
2019-06-01T14:32:54.445Z,36.40
2019-06-01T14:35:23.768Z,35.80
2019-06-01T14:37:57.077Z,35.00
2019-06-01T14:40:27.641Z,35.40
2019-06-01T14:42:57.781Z,34.50
2019-06-01T14:45:27.384Z,34.90
2019-06-01T14:47:57.639Z,33.20
2019-06-01T14:50:27.569Z,34.70
2019-06-01T14:52:57.953Z,35.30
2019-06-01T14:55:30.254Z,33.00
2019-06-01T14:57:59.467Z,33.60
2019-06-01T15:00:28.840Z,33.10
2019-06-01T15:03:05.096Z,34.10
2019-06-01T15:05:35.499Z,35.30
2019-06-01T15:08:04.740Z,35.80
2019-06-01T15:10:33.959Z,36.00
2019-06-01T15:13:05.174Z,36.40
2019-06-01T15:15:34.374Z,36.50
2019-06-01T15:18:05.382Z,36.10
2019-06-01T15:20:36.121Z,35.90
2019-06-01T15:23:05.323Z,36.20
2019-06-01T15:25:34.508Z,34.50
2019-06-01T15:28:04.775Z,35.10
2019-06-01T15:30:41.652Z,35.60
2019-06-01T15:33:13.959Z,35.90
2019-06-01T15:35:45.549Z,36.00
2019-06-01T15:38:15.456Z,35.70
2019-06-01T15:40:45.215Z,35.40
2019-06-01T15:43:17.150Z,34.10
2019-06-01T15:45:46.331Z,34.80
2019-06-01T15:48:17.674Z,35.10
2019-06-01T15:50:48.517Z,33.40
2019-06-01T15:53:18.905Z,34.50
2019-06-01T15:55:49.225Z,34.80
2019-06-01T15:58:22.194Z,34.00
2019-06-01T16:00:52.768Z,33.70
2019-06-01T16:03:25.696Z,32.40
2019-06-01T16:05:55.042Z,33.10
2019-06-01T16:08:25.756Z,33.70
2019-06-01T16:11:02.881Z,32.70
2019-06-01T16:13:28.958Z,32.70
2019-06-01T16:16:01.949Z,32.90
2019-06-01T16:18:30.755Z,32.40
2019-06-01T16:21:00.205Z,32.30
2019-06-01T16:23:46.173Z,32.30
2019-06-01T16:26:12.773Z,32.10
2019-06-01T16:28:35.278Z,31.20
2019-06-01T16:31:04.902Z,31.30
2019-06-01T16:33:34.089Z,30.80
2019-06-01T16:36:07.467Z,31.30
2019-06-01T16:38:38.986Z,31.20
2019-06-01T16:41:08.019Z,30.60
2019-06-01T16:43:43.113Z,31.10
2019-06-01T16:46:12.900Z,30.00
2019-06-01T16:48:45.965Z,30.20
2019-06-01T16:51:19.654Z,29.70
2019-06-01T16:53:49.717Z,30.20
2019-06-01T16:56:20.322Z,29.30
2019-06-01T16:58:51.717Z,29.50
2019-06-01T17:01:22.440Z,29.40
2019-06-01T17:03:52.486Z,29.40
2019-06-01T17:06:22.064Z,29.20
2019-06-01T17:08:51.309Z,28.80
2019-06-01T17:11:20.879Z,28.40
2019-06-01T17:13:50.030Z,28.90
2019-06-01T17:16:19.192Z,28.60
2019-06-01T17:18:48.674Z,28.90
2019-06-01T17:21:17.788Z,29.20
2019-06-01T17:23:46.904Z,29.40
2019-06-01T17:26:16.825Z,29.60
2019-06-01T17:28:45.966Z,29.60
2019-06-01T17:31:15.102Z,29.60
2019-06-01T17:33:44.874Z,29.60
2019-06-01T17:36:14.491Z,29.40
2019-06-01T17:38:43.637Z,29.50
2019-06-01T17:41:12.896Z,29.30
2019-06-01T17:43:42.085Z,29.40
2019-06-01T17:46:12.034Z,29.40
2019-06-01T17:48:42.687Z,28.80
2019-06-01T17:51:12.759Z,28.60
2019-06-01T17:53:42.161Z,28.20
2019-06-01T17:56:12.193Z,28.00
2019-06-01T17:58:41.433Z,27.80
2019-06-01T18:01:12.028Z,27.60
2019-06-01T18:03:41.302Z,27.50
2019-06-01T18:06:12.788Z,27.70
2019-06-01T18:08:41.591Z,27.60
2019-06-01T18:11:10.826Z,27.60
2019-06-01T18:13:39.968Z,27.00
2019-06-01T18:16:10.293Z,26.90
2019-06-01T18:18:39.604Z,26.70
2019-06-01T18:21:08.818Z,26.30
2019-06-01T18:23:39.452Z,26.20
2019-06-01T18:26:09.081Z,25.90
2019-06-01T18:28:39.583Z,26.00
2019-06-01T18:31:08.807Z,26.20
2019-06-01T18:33:38.626Z,26.00
2019-06-01T18:36:07.882Z,25.70
2019-06-01T18:38:39.064Z,25.40
2019-06-01T18:41:14.592Z,25.70
2019-06-01T18:43:40.381Z,25.70
2019-06-01T18:46:10.463Z,25.80
2019-06-01T18:48:40.169Z,25.80
2019-06-01T18:51:14.294Z,25.80
2019-06-01T18:53:44.527Z,25.70
2019-06-01T18:56:15.439Z,25.50
2019-06-01T18:58:53.183Z,25.40
2019-06-01T19:01:22.721Z,25.20
2019-06-01T19:03:52.693Z,25.10
2019-06-01T19:06:31.017Z,24.90
2019-06-01T19:09:01.268Z,24.80
2019-06-01T19:11:35.961Z,24.60
2019-06-01T19:14:02.853Z,24.50
2019-06-01T19:16:34.321Z,24.40
2019-06-01T19:19:04.158Z,24.30
2019-06-01T19:21:33.785Z,24.20
2019-06-01T19:24:04.797Z,24.10
2019-06-01T19:26:34.028Z,24.00
2019-06-01T19:29:03.488Z,23.70
2019-06-01T19:31:35.612Z,23.60
2019-06-01T19:34:04.848Z,23.60
2019-06-01T19:36:34.250Z,23.40
2019-06-01T19:39:09.173Z,23.30
2019-06-01T19:41:44.708Z,23.20
2019-06-01T19:44:11.911Z,23.10
2019-06-01T19:46:41.192Z,23.00
2019-06-01T19:49:10.831Z,22.90
2019-06-01T19:51:40.349Z,22.80
2019-06-01T19:54:10.783Z,22.60
2019-06-01T19:56:40.189Z,22.60
2019-06-01T19:59:09.831Z,22.50
2019-06-01T20:01:39.393Z,22.40
2019-06-01T20:04:10.466Z,22.40
2019-06-01T20:06:41.299Z,22.30
2019-06-01T20:09:10.948Z,22.20
2019-06-01T20:11:40.320Z,22.10
2019-06-01T20:14:14.190Z,22.00
2019-06-01T20:16:45.258Z,21.90
2019-06-01T20:19:19.837Z,21.80
2019-06-01T20:21:49.527Z,21.70
2019-06-01T20:24:19.373Z,21.60
2019-06-01T20:26:49.930Z,21.50
2019-06-01T20:29:31.563Z,21.50
2019-06-01T20:32:04.671Z,21.30
2019-06-01T20:34:41.514Z,21.30
2019-06-01T20:37:13.903Z,21.20
2019-06-01T20:39:46.095Z,21.10
2019-06-01T20:42:32.337Z,21.00
2019-06-01T20:44:58.132Z,21.00
2019-06-01T20:47:32.062Z,20.90
2019-06-01T20:50:02.100Z,20.70
2019-06-01T20:52:42.310Z,20.70
2019-06-01T20:55:15.171Z,20.60
2019-06-01T20:57:45.433Z,20.50
2019-06-01T21:00:17.980Z,20.40
2019-06-01T21:02:49.332Z,20.30
2019-06-01T21:05:19.841Z,20.30
2019-06-01T21:07:49.323Z,20.20
2019-06-01T21:10:25.703Z,20.20
2019-06-01T21:12:55.274Z,20.10
2019-06-01T21:15:25.018Z,20.00
2019-06-01T21:17:54.402Z,20.10
2019-06-01T21:20:28.498Z,20.10
2019-06-01T21:22:54.560Z,20.00
2019-06-01T21:25:26.525Z,20.00
2019-06-01T21:27:58.751Z,19.80
2019-06-01T21:30:27.942Z,19.80
2019-06-01T21:32:57.122Z,19.80
2019-06-01T21:35:27.311Z,19.70
2019-06-01T21:38:05.518Z,19.70
2019-06-01T21:40:39.743Z,19.70
2019-06-01T21:43:23.613Z,19.70
2019-06-01T21:45:41.750Z,19.60
2019-06-01T21:48:11.590Z,19.60
2019-06-01T21:50:40.918Z,19.60
2019-06-01T21:53:11.099Z,19.50
2019-06-01T21:55:40.240Z,19.50
2019-06-01T21:58:09.464Z,19.40
2019-06-01T22:00:38.971Z,19.40
2019-06-01T22:03:09.064Z,19.30
2019-06-01T22:05:38.283Z,19.30
2019-06-01T22:08:11.005Z,19.30
2019-06-01T22:10:41.194Z,19.20
2019-06-01T22:13:18.510Z,19.30
2019-06-01T22:15:44.119Z,19.30
2019-06-01T22:18:15.755Z,19.20
2019-06-01T22:20:45.014Z,19.20
2019-06-01T22:23:15.252Z,19.20
2019-06-01T22:25:44.501Z,19.20
2019-06-01T22:28:13.759Z,19.10
2019-06-01T22:30:43.068Z,19.10
2019-06-01T22:33:12.410Z,19.10
2019-06-01T22:35:46.009Z,19.10
2019-06-01T22:38:15.187Z,19.10
2019-06-01T22:40:44.369Z,19.00
2019-06-01T22:43:13.913Z,19.00
2019-06-01T22:45:43.095Z,18.90
2019-06-01T22:48:13.949Z,19.00
2019-06-01T22:50:43.433Z,18.90
2019-06-01T22:53:17.011Z,18.90
2019-06-01T22:55:46.308Z,18.90
2019-06-01T22:58:15.525Z,18.90
2019-06-01T23:00:45.206Z,18.80
2019-06-01T23:03:14.526Z,18.80
2019-06-01T23:05:43.672Z,18.70
2019-06-01T23:08:12.956Z,18.70
2019-06-01T23:10:42.369Z,18.60
2019-06-01T23:13:11.647Z,18.60
2019-06-01T23:15:40.818Z,18.60
2019-06-01T23:18:10.915Z,18.60
2019-06-01T23:20:40.201Z,18.50
2019-06-01T23:23:09.432Z,18.50
2019-06-01T23:25:38.595Z,18.40
2019-06-01T23:28:07.865Z,18.40
2019-06-01T23:30:37.042Z,18.30
2019-06-01T23:33:06.232Z,18.30
2019-06-01T23:35:36.174Z,18.30
2019-06-01T23:38:11.605Z,18.20
2019-06-01T23:40:44.251Z,18.20
2019-06-01T23:43:15.027Z,18.20
2019-06-01T23:45:47.105Z,18.20
2019-06-01T23:48:19.159Z,18.20
2019-06-01T23:50:51.977Z,18.10
2019-06-01T23:53:21.540Z,18.10
2019-06-01T23:55:50.749Z,18.00
2019-06-01T23:58:19.883Z,18.00
